createdAt,value
2019-02-27T00:01:08.183Z,78.25
2019-02-27T00:03:39.286Z,78.67
2019-02-27T00:06:17.598Z,78.22
2019-02-27T00:08:51.800Z,77.71
2019-02-27T00:11:21.551Z,77.96
2019-02-27T00:13:58.555Z,78.11
2019-02-27T00:16:37.355Z,78.69
2019-02-27T00:19:08.482Z,78.21
2019-02-27T00:21:40.921Z,78.62
2019-02-27T00:24:15.547Z,78.92
2019-02-27T00:26:47.058Z,78.46
2019-02-27T00:29:20.942Z,78.51
2019-02-27T00:31:51.836Z,78.03
2019-02-27T00:34:24.698Z,77.75
2019-02-27T00:36:58.033Z,78.55
2019-02-27T00:39:31.291Z,79.53
2019-02-27T00:42:07.037Z,79.19
2019-02-27T00:44:39.133Z,79.48
2019-02-27T00:47:09.946Z,80.02
2019-02-27T00:49:44.782Z,79.81
2019-02-27T00:52:18.051Z,79.77
2019-02-27T00:54:44.282Z,79.26
2019-02-27T00:57:20.596Z,79.06
2019-02-27T00:59:47.610Z,78.87
2019-02-27T01:02:20.248Z,78.94
2019-02-27T01:04:49.881Z,78.87
2019-02-27T01:07:20.658Z,78.95
2019-02-27T01:09:49.847Z,78.92
2019-02-27T01:12:25.234Z,79.18
2019-02-27T01:14:54.328Z,79.21
2019-02-27T01:17:24.811Z,79.34
2019-02-27T01:19:53.930Z,79.35
2019-02-27T01:22:24.536Z,79.48
2019-02-27T01:24:55.603Z,79.93
2019-02-27T01:27:26.511Z,80.36
2019-02-27T01:30:00.728Z,80.17
2019-02-27T01:32:32.522Z,80.58
2019-02-27T01:35:06.012Z,80.88
2019-02-27T01:37:37.524Z,80.64
2019-02-27T01:40:08.180Z,81.29
2019-02-27T01:42:40.351Z,80.82
2019-02-27T01:45:20.710Z,81.50
2019-02-27T01:47:53.016Z,81.35
2019-02-27T01:50:29.966Z,81.11
2019-02-27T01:53:07.034Z,81.05
2019-02-27T01:55:40.317Z,81.06
2019-02-27T01:58:12.892Z,81.00
2019-02-27T02:00:43.943Z,80.71
2019-02-27T02:03:16.529Z,80.71
2019-02-27T02:05:48.479Z,80.45
2019-02-27T02:08:20.801Z,80.46
2019-02-27T02:10:52.134Z,80.81
2019-02-27T02:13:42.884Z,82.50
2019-02-27T02:16:39.847Z,82.39
2019-02-27T02:19:41.684Z,81.78
2019-02-27T02:22:25.254Z,81.69
2019-02-27T02:25:54.020Z,82.00
2019-02-27T02:29:09.091Z,81.98
2019-02-27T02:31:50.999Z,82.68
2019-02-27T02:34:51.415Z,82.79
2019-02-27T02:37:51.179Z,82.32
2019-02-27T02:40:52.495Z,82.59
2019-02-27T02:43:47.617Z,82.32
2019-02-27T02:46:33.971Z,81.84
2019-02-27T02:49:44.023Z,82.11
2019-02-27T02:53:06.156Z,82.04
2019-02-27T02:56:03.486Z,82.46
2019-02-27T02:59:07.869Z,82.12
2019-02-27T03:01:53.868Z,81.99
2019-02-27T03:04:59.674Z,82.67
2019-02-27T03:07:49.027Z,83.40
2019-02-27T03:10:52.799Z,83.30
2019-02-27T03:13:45.669Z,83.18
2019-02-27T03:16:44.085Z,82.55
2019-02-27T03:19:28.307Z,82.88
2019-02-27T03:22:24.937Z,83.92
2019-02-27T03:25:16.082Z,83.82
2019-02-27T03:28:46.072Z,83.45
2019-02-27T03:31:37.571Z,83.46
2019-02-27T03:34:47.994Z,83.34
2019-02-27T03:37:24.650Z,83.93
2019-02-27T03:40:36.453Z,83.50
2019-02-27T03:43:54.167Z,83.93
2019-02-27T03:46:54.515Z,84.45
2019-02-27T03:49:40.969Z,84.05
2019-02-27T03:52:50.152Z,83.55
2019-02-27T03:55:46.043Z,83.90
2019-02-27T03:58:43.651Z,83.85
2019-02-27T04:01:46.081Z,84.06
2019-02-27T04:04:37.222Z,83.22
2019-02-27T04:07:44.355Z,82.91
2019-02-27T04:10:17.928Z,82.72
2019-02-27T04:12:54.212Z,83.10
2019-02-27T04:15:23.264Z,83.72
2019-02-27T04:17:52.372Z,84.31
2019-02-27T04:20:26.838Z,84.35
2019-02-27T04:23:03.005Z,84.09
2019-02-27T04:25:32.273Z,83.47
2019-02-27T04:28:05.076Z,83.93
2019-02-27T04:30:34.890Z,83.99
2019-02-27T04:33:08.670Z,83.47
2019-02-27T04:35:45.548Z,83.66
2019-02-27T04:38:15.814Z,83.76
2019-02-27T04:40:46.177Z,82.95
2019-02-27T04:43:17.000Z,82.48
2019-02-27T04:45:48.684Z,82.96
2019-02-27T04:48:24.362Z,83.38
2019-02-27T04:50:53.963Z,84.34
2019-02-27T04:53:24.945Z,84.81
2019-02-27T04:55:57.288Z,85.32
2019-02-27T04:58:35.865Z,85.06
2019-02-27T05:01:10.750Z,84.83
2019-02-27T05:03:47.416Z,84.16
2019-02-27T05:06:18.085Z,83.96
2019-02-27T05:08:55.038Z,84.77
2019-02-27T05:11:28.677Z,84.72
2019-02-27T05:14:32.418Z,84.20
2019-02-27T05:17:15.576Z,83.91
2019-02-27T05:19:44.126Z,83.68
2019-02-27T05:22:12.652Z,84.21
2019-02-27T05:24:45.314Z,84.83
2019-02-27T05:27:14.608Z,84.30
2019-02-27T05:29:46.160Z,84.58
2019-02-27T05:32:18.207Z,83.76
2019-02-27T05:34:49.932Z,83.72
2019-02-27T05:37:22.798Z,83.68
2019-02-27T05:39:52.599Z,84.07
2019-02-27T05:42:22.190Z,84.05
2019-02-27T05:44:56.927Z,84.47
2019-02-27T05:47:29.277Z,84.41
2019-02-27T05:50:01.818Z,84.12
2019-02-27T05:52:32.756Z,83.81
2019-02-27T05:55:06.131Z,83.78
2019-02-27T05:57:39.009Z,83.33
2019-02-27T06:00:12.610Z,82.83
2019-02-27T06:02:46.206Z,83.17
2019-02-27T06:05:22.865Z,82.92
2019-02-27T06:08:03.136Z,82.95
2019-02-27T06:10:33.987Z,82.41
2019-02-27T06:13:02.948Z,82.57
2019-02-27T06:15:35.710Z,82.53
2019-02-27T06:18:06.283Z,82.75
2019-02-27T06:20:38.939Z,82.26
2019-02-27T06:23:31.357Z,82.70
2019-02-27T06:26:09.129Z,83.21
2019-02-27T06:28:43.531Z,82.77
2019-02-27T06:31:16.125Z,83.32
2019-02-27T06:33:51.632Z,83.09
2019-02-27T06:36:26.364Z,82.80
2019-02-27T06:39:01.407Z,82.68
2019-02-27T06:41:34.759Z,82.91
2019-02-27T06:44:04.491Z,82.76
2019-02-27T06:46:34.543Z,82.90
2019-02-27T06:49:05.731Z,82.41
2019-02-27T06:51:36.602Z,82.13
2019-02-27T06:54:05.823Z,82.03
2019-02-27T06:56:36.807Z,81.77
2019-02-27T06:59:09.013Z,82.04
2019-02-27T07:01:41.027Z,81.68
2019-02-27T07:04:16.050Z,81.13
2019-02-27T07:06:49.669Z,80.58
2019-02-27T07:09:21.595Z,80.35
2019-02-27T07:11:59.633Z,80.62
2019-02-27T07:14:28.368Z,80.77
2019-02-27T07:17:02.364Z,81.30
2019-02-27T07:19:34.546Z,80.07
2019-02-27T07:22:06.306Z,80.06
2019-02-27T07:24:54.759Z,80.25
2019-02-27T07:27:25.328Z,79.56
2019-02-27T07:29:59.399Z,79.29
2019-02-27T07:32:36.521Z,78.87
2019-02-27T07:35:12.275Z,78.27
2019-02-27T07:37:47.961Z,78.23
2019-02-27T07:40:18.530Z,77.88
2019-02-27T07:42:47.843Z,77.54
2019-02-27T07:45:17.154Z,76.27
2019-02-27T07:47:48.278Z,75.21
2019-02-27T07:50:18.307Z,75.08
2019-02-27T07:52:53.136Z,74.36
2019-02-27T07:55:28.223Z,73.44
2019-02-27T07:58:00.537Z,73.84
2019-02-27T08:00:35.887Z,72.88
2019-02-27T08:03:09.051Z,72.84
2019-02-27T08:05:46.035Z,72.04
2019-02-27T08:08:16.958Z,72.39
2019-02-27T08:10:52.457Z,72.42
2019-02-27T08:13:21.216Z,72.33
2019-02-27T08:15:54.612Z,72.48
2019-02-27T08:18:36.562Z,71.90
2019-02-27T08:21:04.100Z,72.02
2019-02-27T08:23:35.980Z,70.74
2019-02-27T08:26:06.148Z,69.92
2019-02-27T08:28:36.053Z,69.77
2019-02-27T08:31:07.597Z,69.62
2019-02-27T08:33:37.826Z,69.25
2019-02-27T08:36:10.291Z,68.47
2019-02-27T08:38:39.438Z,67.25
2019-02-27T08:41:09.911Z,66.92
2019-02-27T08:43:41.239Z,67.21
2019-02-27T08:46:13.008Z,65.77
2019-02-27T08:48:49.900Z,66.06
2019-02-27T08:51:17.762Z,66.53
2019-02-27T08:53:53.804Z,66.77
2019-02-27T08:56:25.820Z,66.37
2019-02-27T08:58:55.779Z,66.18
2019-02-27T09:01:29.038Z,66.19
2019-02-27T09:03:57.961Z,65.81
2019-02-27T09:06:28.341Z,64.32
2019-02-27T09:09:04.465Z,63.96
2019-02-27T09:11:42.382Z,63.55
2019-02-27T09:14:15.107Z,63.91
2019-02-27T09:16:43.715Z,62.84
2019-02-27T09:21:41.701Z,61.86
2019-02-27T09:24:17.855Z,60.86
2019-02-27T09:26:54.041Z,59.79
2019-02-27T09:29:25.444Z,59.82
2019-02-27T09:31:57.040Z,58.70
2019-02-27T09:34:32.755Z,58.78
2019-02-27T09:37:02.306Z,58.43
2019-02-27T09:39:35.240Z,58.43
2019-02-27T09:42:09.253Z,57.73
2019-02-27T09:44:44.999Z,57.16
2019-02-27T09:47:16.060Z,56.23
2019-02-27T09:49:46.700Z,56.23
2019-02-27T09:52:17.550Z,55.00
2019-02-27T09:54:51.520Z,56.25
2019-02-27T09:57:23.459Z,56.48
2019-02-27T09:59:57.210Z,55.04
2019-02-27T10:02:26.186Z,55.12
2019-02-27T10:05:01.417Z,55.00
2019-02-27T10:07:32.166Z,53.94
2019-02-27T10:10:10.218Z,52.55
2019-02-27T10:12:42.286Z,52.45
2019-02-27T10:15:16.109Z,51.93
2019-02-27T10:17:44.329Z,51.26
2019-02-27T10:20:16.409Z,51.29
2019-02-27T10:22:45.583Z,51.95
2019-02-27T10:25:17.217Z,51.15
2019-02-27T10:27:49.517Z,50.67
2019-02-27T10:30:21.896Z,51.10
2019-02-27T10:32:54.249Z,48.40
2019-02-27T10:35:29.379Z,48.76
2019-02-27T10:37:59.817Z,48.27
2019-02-27T10:40:32.067Z,49.00
2019-02-27T10:43:03.797Z,47.80
2019-02-27T10:45:42.102Z,47.22
2019-02-27T10:48:13.389Z,45.94
2019-02-27T10:50:46.001Z,45.02
2019-02-27T10:53:27.469Z,43.05
2019-02-27T10:55:58.870Z,43.43
2019-02-27T10:58:33.751Z,43.05
2019-02-27T11:01:09.641Z,36.62
2019-02-27T11:03:39.793Z,37.31
2019-02-27T11:06:12.450Z,38.89
2019-02-27T11:08:43.311Z,37.88
2019-02-27T11:11:13.193Z,36.51
2019-02-27T11:13:51.728Z,35.33
2019-02-27T11:16:25.332Z,34.50
2019-02-27T11:18:57.727Z,35.97
2019-02-27T11:21:29.586Z,34.92
2019-02-27T11:24:02.799Z,34.60
2019-02-27T11:26:41.915Z,33.20
2019-02-27T11:29:14.085Z,33.59
2019-02-27T11:31:45.593Z,34.12
2019-02-27T11:34:16.149Z,33.78
2019-02-27T11:36:45.145Z,33.64
2019-02-27T11:39:16.630Z,33.87
2019-02-27T11:41:49.180Z,32.40
2019-02-27T11:44:21.832Z,33.80
2019-02-27T11:46:58.620Z,32.94
2019-02-27T11:49:29.655Z,33.10
2019-02-27T11:51:58.530Z,33.35
2019-02-27T11:54:33.888Z,32.50
2019-02-27T11:57:07.669Z,32.59
2019-02-27T11:59:37.906Z,31.88
2019-02-27T12:02:10.365Z,30.92
2019-02-27T12:04:41.100Z,31.73
2019-02-27T12:07:12.297Z,31.75
2019-02-27T12:09:43.984Z,31.73
2019-02-27T12:12:14.199Z,31.97
2019-02-27T12:14:47.855Z,32.52
2019-02-27T12:17:18.205Z,33.37
2019-02-27T12:19:53.588Z,32.46
2019-02-27T12:22:24.414Z,32.57
2019-02-27T12:25:00.872Z,34.34
2019-02-27T12:27:48.787Z,33.43
2019-02-27T12:30:14.126Z,32.88
2019-02-27T12:32:46.260Z,32.74
2019-02-27T12:35:20.834Z,32.35
2019-02-27T12:37:51.424Z,32.99
2019-02-27T12:40:24.997Z,34.23
2019-02-27T12:42:55.864Z,34.24
2019-02-27T12:45:29.694Z,31.44
2019-02-27T12:48:04.583Z,32.53
2019-02-27T12:50:38.592Z,30.88
2019-02-27T12:53:08.000Z,30.43
2019-02-27T12:55:38.475Z,30.46
2019-02-27T12:58:09.135Z,30.58
2019-02-27T13:00:39.929Z,30.50
2019-02-27T13:03:13.048Z,30.93
2019-02-27T13:05:51.673Z,31.02
2019-02-27T13:08:26.924Z,31.66
2019-02-27T13:10:57.484Z,31.75
2019-02-27T13:13:26.521Z,32.09
2019-02-27T13:15:57.088Z,31.97
2019-02-27T13:18:32.030Z,32.40
2019-02-27T13:21:01.555Z,32.36
2019-02-27T13:23:36.381Z,31.95
2019-02-27T13:26:08.508Z,31.11
2019-02-27T13:28:41.446Z,31.49
2019-02-27T13:31:13.655Z,30.27
2019-02-27T13:33:48.316Z,30.77
2019-02-27T13:36:20.308Z,31.02
2019-02-27T13:38:51.971Z,31.19
2019-02-27T13:41:20.572Z,31.38
2019-02-27T13:43:49.517Z,31.90
2019-02-27T13:46:22.723Z,31.13
2019-02-27T13:48:55.571Z,30.85
2019-02-27T13:51:29.059Z,31.35
2019-02-27T13:54:00.547Z,31.18
2019-02-27T13:56:30.830Z,31.02
2019-02-27T13:59:02.910Z,31.20
2019-02-27T14:01:34.576Z,31.20
2019-02-27T14:04:08.613Z,31.17
2019-02-27T14:06:42.858Z,31.15
2019-02-27T14:09:19.020Z,30.79
2019-02-27T14:11:51.325Z,31.25
2019-02-27T14:14:23.948Z,31.83
2019-02-27T14:16:57.632Z,31.25
2019-02-27T14:19:28.198Z,31.30
2019-02-27T14:21:56.799Z,31.16
2019-02-27T14:24:25.816Z,31.88
2019-02-27T14:26:54.425Z,31.93
2019-02-27T14:29:29.795Z,32.00
2019-02-27T14:32:04.714Z,32.08
2019-02-27T14:34:35.888Z,32.38
2019-02-27T14:37:08.270Z,32.61
2019-02-27T14:39:38.190Z,32.56
2019-02-27T14:42:10.216Z,32.31
2019-02-27T14:44:41.119Z,32.15
2019-02-27T14:47:16.435Z,32.10
2019-02-27T14:49:47.155Z,32.65
2019-02-27T14:52:16.289Z,32.27
2019-02-27T14:54:45.145Z,32.30
2019-02-27T14:57:16.100Z,32.35
2019-02-27T14:59:47.581Z,32.89
2019-02-27T15:02:22.415Z,33.22
2019-02-27T15:04:56.647Z,32.54
2019-02-27T15:07:27.152Z,32.60
2019-02-27T15:09:57.163Z,32.56
2019-02-27T15:12:33.948Z,32.80
2019-02-27T15:15:02.959Z,33.81
2019-02-27T15:17:38.786Z,34.14
2019-02-27T15:20:09.497Z,34.61
2019-02-27T15:22:38.562Z,33.95
2019-02-27T15:25:12.428Z,34.17
2019-02-27T15:27:41.460Z,33.86
2019-02-27T15:30:28.068Z,34.39
2019-02-27T15:32:56.991Z,35.15
2019-02-27T15:35:28.440Z,35.13
2019-02-27T15:37:57.573Z,34.37
2019-02-27T15:40:33.829Z,35.04
2019-02-27T15:43:11.010Z,35.63
2019-02-27T15:45:35.303Z,35.63
2019-02-27T15:48:06.879Z,36.14
2019-02-27T15:50:38.016Z,36.45
2019-02-27T15:53:07.227Z,36.48
2019-02-27T15:55:39.266Z,36.92
2019-02-27T15:58:11.724Z,37.16
2019-02-27T16:00:44.124Z,37.54
2019-02-27T16:03:13.131Z,37.89
2019-02-27T16:05:47.381Z,38.28
2019-02-27T16:08:16.372Z,38.68
2019-02-27T16:10:54.770Z,39.48
2019-02-27T16:13:19.427Z,40.02
2019-02-27T16:15:49.307Z,40.02
2019-02-27T16:18:22.748Z,40.64
2019-02-27T16:20:51.820Z,41.28
2019-02-27T16:23:23.843Z,41.54
2019-02-27T16:25:54.933Z,41.29
2019-02-27T16:28:25.576Z,41.49
2019-02-27T16:31:05.944Z,42.26
2019-02-27T16:33:31.827Z,43.15
2019-02-27T16:36:02.521Z,43.52
2019-02-27T16:38:33.741Z,43.79
2019-02-27T16:41:04.517Z,44.55
2019-02-27T16:43:33.485Z,45.42
2019-02-27T16:46:07.687Z,46.09
2019-02-27T16:48:35.660Z,47.05
2019-02-27T16:51:04.728Z,47.87
2019-02-27T16:53:33.652Z,48.22
2019-02-27T16:56:11.860Z,48.95
2019-02-27T16:58:41.642Z,49.48
2019-02-27T17:01:12.159Z,50.29
2019-02-27T17:03:41.370Z,51.02
2019-02-27T17:06:10.430Z,51.80
2019-02-27T17:08:42.762Z,52.20
2019-02-27T17:11:16.569Z,52.35
2019-02-27T17:13:46.961Z,52.93
2019-02-27T17:16:15.339Z,53.25
2019-02-27T17:18:44.617Z,53.84
2019-02-27T17:21:16.521Z,54.42
2019-02-27T17:23:46.703Z,55.41
2019-02-27T17:26:15.602Z,55.90
2019-02-27T17:28:44.422Z,56.24
2019-02-27T17:31:13.622Z,56.64
2019-02-27T17:33:42.700Z,57.48
2019-02-27T17:36:13.658Z,57.97
2019-02-27T17:38:45.253Z,58.52
2019-02-27T17:41:16.162Z,58.89
2019-02-27T17:43:45.910Z,59.38
2019-02-27T17:46:14.938Z,59.53
2019-02-27T17:48:45.947Z,59.81
2019-02-27T17:51:14.821Z,59.48
2019-02-27T17:53:45.894Z,59.44
2019-02-27T17:56:15.663Z,60.00
2019-02-27T17:58:45.279Z,60.44
2019-02-27T18:01:16.508Z,60.75
2019-02-27T18:04:05.706Z,60.70
2019-02-27T18:06:36.632Z,60.55
2019-02-27T18:09:30.404Z,61.61
2019-02-27T18:11:59.259Z,62.18
2019-02-27T18:14:28.188Z,62.25
2019-02-27T18:16:59.211Z,62.58
2019-02-27T18:19:28.159Z,62.95
2019-02-27T18:21:57.366Z,63.55
2019-02-27T18:24:26.438Z,63.81
2019-02-27T18:26:55.300Z,64.29
2019-02-27T18:29:28.748Z,64.69
2019-02-27T18:32:01.190Z,65.06
2019-02-27T18:34:28.524Z,65.02
2019-02-27T18:37:00.703Z,65.43
2019-02-27T18:39:29.846Z,66.66
2019-02-27T18:42:00.048Z,66.55
2019-02-27T18:44:29.289Z,66.24
2019-02-27T18:47:02.411Z,66.35
2019-02-27T18:49:32.314Z,66.55
2019-02-27T18:52:06.410Z,67.27
2019-02-27T18:54:32.357Z,67.15
2019-02-27T18:57:03.308Z,67.54
2019-02-27T18:59:32.113Z,67.54
2019-02-27T19:02:07.393Z,68.05
2019-02-27T19:04:36.617Z,68.96
2019-02-27T19:07:05.688Z,68.92
2019-02-27T19:09:34.792Z,69.47
2019-02-27T19:12:05.542Z,69.47
2019-02-27T19:14:36.750Z,71.25
2019-02-27T19:17:07.214Z,71.25
2019-02-27T19:19:38.026Z,70.88
2019-02-27T19:22:08.038Z,70.91
2019-02-27T19:24:41.498Z,71.36
2019-02-27T19:27:10.801Z,71.56
2019-02-27T19:29:40.094Z,71.19
2019-02-27T19:32:09.210Z,71.70
2019-02-27T19:34:38.329Z,70.72
2019-02-27T19:37:07.382Z,71.01
2019-02-27T19:39:38.254Z,71.45
2019-02-27T20:09:56.453Z,73.34
2019-02-27T20:12:25.306Z,73.54
2019-02-27T20:14:54.251Z,73.41
2019-02-27T20:17:32.853Z,73.74
2019-02-27T20:20:00.530Z,74.47
2019-02-27T20:22:30.041Z,75.30
2019-02-27T20:25:02.405Z,75.17
2019-02-27T20:27:31.706Z,74.45
2019-02-27T20:30:00.454Z,74.48
2019-02-27T20:32:30.058Z,73.93
2019-02-27T20:34:59.882Z,74.09
2019-02-27T20:37:28.819Z,74.28
2019-02-27T20:39:59.160Z,74.15
2019-02-27T20:42:28.264Z,74.57
2019-02-27T20:44:59.231Z,75.02
2019-02-27T20:47:27.859Z,75.04
2019-02-27T20:49:58.249Z,75.64
2019-02-27T20:52:27.761Z,76.03
2019-02-27T20:54:58.928Z,75.36
2019-02-27T20:57:27.903Z,75.24
2019-02-27T21:00:00.498Z,75.28
2019-02-27T21:02:28.119Z,76.59
2019-02-27T21:04:57.323Z,77.28
2019-02-27T21:07:29.526Z,77.68
2019-02-27T21:09:58.970Z,78.58
2019-02-27T21:12:27.820Z,78.49
2019-02-27T21:14:58.586Z,79.25
2019-02-27T21:17:27.899Z,78.94
2019-02-27T21:19:59.723Z,78.64
2019-02-27T21:22:28.469Z,78.65
2019-02-27T21:24:57.893Z,78.65
2019-02-27T21:27:28.529Z,78.27
2019-02-27T21:29:57.502Z,78.28
2019-02-27T21:32:37.951Z,77.86
2019-02-27T21:35:07.039Z,78.17
2019-02-27T21:37:35.789Z,78.69
2019-02-27T21:40:04.827Z,78.71
2019-02-27T21:42:33.855Z,77.97
2019-02-27T21:45:03.598Z,78.27
2019-02-27T21:47:35.793Z,79.58
2019-02-27T21:50:07.123Z,79.69
2019-02-27T21:52:37.470Z,79.73
2019-02-27T21:55:06.483Z,79.56
2019-02-27T21:57:36.868Z,79.46
2019-02-27T22:00:11.381Z,78.43
2019-02-27T22:02:40.414Z,78.47
2019-02-27T22:05:09.849Z,78.98
2019-02-27T22:07:38.630Z,78.97
2019-02-27T22:10:09.028Z,79.15
2019-02-27T22:12:38.066Z,78.93
2019-02-27T22:15:13.426Z,79.01
2019-02-27T22:17:42.404Z,79.53
2019-02-27T22:20:12.333Z,79.28
2019-02-27T22:22:42.358Z,78.57
2019-02-27T22:25:11.155Z,77.53
2019-02-27T22:27:39.864Z,76.87
2019-02-27T22:30:10.917Z,76.72
2019-02-27T22:32:40.412Z,77.18
2019-02-27T22:35:09.522Z,75.53
2019-02-27T22:37:38.344Z,74.78
2019-02-27T22:40:08.536Z,73.31
2019-02-27T22:42:39.724Z,73.37
2019-02-27T22:45:09.283Z,73.12
2019-02-27T22:47:40.031Z,73.17
2019-02-27T22:50:10.213Z,73.76
2019-02-27T22:52:39.326Z,73.78
2019-02-27T22:55:10.728Z,73.86
2019-02-27T22:57:40.634Z,74.99
2019-02-27T23:00:42.967Z,75.23
2019-02-27T23:03:11.091Z,75.90
2019-02-27T23:05:40.260Z,76.49
2019-02-27T23:08:10.938Z,76.84
2019-02-27T23:10:40.090Z,77.57
2019-02-27T23:13:12.435Z,77.82
2019-02-27T23:15:41.339Z,78.15
2019-02-27T23:18:10.097Z,78.22
2019-02-27T23:20:39.604Z,79.03
2019-02-27T23:23:08.412Z,78.77
2019-02-27T23:25:39.479Z,78.99
2019-02-27T23:28:08.895Z,78.87
2019-02-27T23:30:37.639Z,79.40
2019-02-27T23:33:06.894Z,79.18
2019-02-27T23:35:35.766Z,79.31
2019-02-27T23:38:05.772Z,79.06
2019-02-27T23:40:36.278Z,78.54
2019-02-27T23:43:04.989Z,79.02
2019-02-27T23:45:33.809Z,79.09
2019-02-27T23:48:03.057Z,79.49
2019-02-27T23:50:31.862Z,79.37
2019-02-27T23:53:02.575Z,79.32
2019-02-27T23:55:31.621Z,79.45
2019-02-27T23:58:00.697Z,79.13
